createdAt,value
2018-03-23T00:00:36.132Z,4.90
2018-03-23T00:04:38.676Z,5.00
2018-03-23T00:08:41.232Z,5.00
2018-03-23T00:12:43.744Z,4.90
2018-03-23T00:16:46.293Z,4.90
2018-03-23T00:20:48.840Z,4.90
2018-03-23T00:24:51.389Z,4.90
2018-03-23T00:28:53.923Z,5.00
2018-03-23T00:32:57.529Z,5.00
2018-03-23T00:37:00.278Z,5.00
2018-03-23T00:41:02.858Z,5.10
2018-03-23T00:45:11.261Z,4.90
2018-03-23T00:49:13.810Z,4.90
2018-03-23T00:53:17.093Z,5.00
2018-03-23T00:57:20.120Z,5.00
2018-03-23T01:01:22.640Z,4.90
2018-03-23T01:05:25.280Z,4.90
2018-03-23T01:09:27.812Z,4.80
2018-03-23T01:13:30.657Z,4.80
2018-03-23T01:17:33.212Z,4.90
2018-03-23T01:21:36.447Z,5.00
2018-03-23T01:25:38.975Z,4.80
2018-03-23T01:29:41.544Z,4.80
2018-03-23T01:33:44.065Z,4.80
2018-03-23T01:37:46.620Z,4.80
2018-03-23T01:41:49.144Z,4.70
2018-03-23T01:45:52.454Z,4.80
2018-03-23T01:49:54.978Z,4.80
2018-03-23T01:53:58.295Z,4.90
2018-03-23T01:58:01.576Z,4.90
2018-03-23T02:02:04.189Z,4.90
2018-03-23T02:06:06.724Z,4.90
2018-03-23T02:10:10.044Z,5.00
2018-03-23T02:14:13.324Z,4.90
2018-03-23T02:18:15.969Z,4.90
2018-03-23T02:22:18.496Z,5.00
2018-03-23T02:26:21.928Z,4.90
2018-03-23T02:30:24.488Z,4.80
2018-03-23T02:34:27.033Z,4.80
2018-03-23T02:38:29.561Z,4.80
2018-03-23T02:42:32.437Z,4.80
2018-03-23T02:46:35.736Z,4.80
2018-03-23T02:50:38.307Z,4.80
2018-03-23T02:54:40.826Z,4.90
2018-03-23T02:58:43.400Z,4.90
2018-03-23T03:02:45.937Z,4.90
2018-03-23T03:06:48.486Z,4.80
2018-03-23T03:10:51.783Z,5.00
2018-03-23T03:14:54.617Z,4.90
2018-03-23T03:18:57.140Z,4.90
2018-03-23T03:23:00.446Z,4.90
2018-03-23T03:27:02.991Z,4.80
2018-03-23T03:31:05.869Z,4.80
2018-03-23T03:35:08.400Z,4.90
2018-03-23T03:39:10.953Z,4.90
2018-03-23T03:43:13.497Z,4.90
2018-03-23T03:47:17.118Z,4.80
2018-03-23T03:51:19.644Z,4.80
2018-03-23T03:55:24.163Z,4.90
2018-03-23T03:59:26.685Z,4.80
2018-03-23T04:03:30.150Z,4.90
2018-03-23T04:07:32.661Z,4.90
2018-03-23T04:11:35.301Z,4.90
2018-03-23T04:15:37.825Z,4.90
2018-03-23T04:19:40.533Z,4.80
2018-03-23T04:23:43.017Z,4.80
2018-03-23T04:27:45.592Z,4.80
2018-03-23T04:31:48.118Z,4.80
2018-03-23T04:35:50.673Z,4.80
2018-03-23T04:39:53.184Z,4.80
2018-03-23T04:43:55.736Z,4.70
2018-03-23T04:47:58.264Z,4.70
2018-03-23T04:52:07.918Z,4.80
2018-03-23T04:56:10.460Z,4.80
2018-03-23T05:00:13.783Z,4.90
2018-03-23T05:04:17.080Z,4.80
2018-03-23T05:08:19.658Z,4.80
2018-03-23T05:12:22.181Z,4.80
2018-03-23T05:16:24.817Z,4.80
2018-03-23T05:20:27.345Z,4.80
2018-03-23T05:24:30.828Z,4.90
2018-03-23T05:28:33.359Z,4.90
2018-03-23T05:32:36.697Z,4.90
2018-03-23T05:36:39.229Z,4.80
2018-03-23T05:40:43.750Z,4.70
2018-03-23T05:44:47.428Z,4.70
2018-03-23T05:48:50.099Z,4.60
2018-03-23T05:52:53.554Z,4.80
2018-03-23T05:56:57.091Z,4.70
2018-03-23T06:00:59.612Z,4.70
2018-03-23T06:05:02.197Z,4.80
2018-03-23T06:09:05.336Z,4.80
2018-03-23T06:13:08.001Z,4.80
2018-03-23T06:17:10.537Z,4.80
2018-03-23T06:21:13.084Z,4.90
2018-03-23T06:25:16.406Z,5.10
2018-03-23T06:29:20.025Z,5.00
2018-03-23T06:33:22.596Z,5.00
2018-03-23T06:37:25.181Z,5.10
2018-03-23T06:41:28.590Z,5.10
2018-03-23T06:45:31.107Z,5.00
2018-03-23T06:49:33.655Z,5.10
2018-03-23T06:53:36.232Z,5.10
2018-03-23T06:57:38.748Z,5.20
2018-03-23T07:01:41.380Z,5.10
2018-03-23T07:05:44.020Z,5.20
2018-03-23T07:09:46.560Z,5.20
2018-03-23T07:13:49.092Z,5.30
2018-03-23T07:17:51.796Z,5.30
2018-03-23T07:22:01.506Z,5.40
2018-03-23T07:26:04.025Z,5.40
2018-03-23T07:30:07.312Z,5.70
2018-03-23T07:34:09.880Z,5.60
2018-03-23T07:38:12.435Z,5.70
2018-03-23T07:42:15.000Z,5.60
2018-03-23T07:46:17.507Z,5.60
2018-03-23T07:50:20.063Z,5.60
2018-03-23T07:54:23.350Z,5.60
2018-03-23T07:58:25.892Z,5.50
2018-03-23T08:02:29.176Z,5.40
2018-03-23T08:06:31.875Z,5.30
2018-03-23T08:10:34.405Z,5.40
2018-03-23T08:14:37.048Z,5.50
2018-03-23T08:18:40.368Z,5.70
2018-03-23T08:22:43.693Z,5.70
2018-03-23T08:26:46.994Z,5.60
2018-03-23T08:30:49.533Z,5.50
2018-03-23T08:34:52.097Z,5.60
2018-03-23T08:38:54.652Z,5.50
2018-03-23T08:42:57.165Z,5.60
2018-03-23T08:46:59.809Z,5.60
2018-03-23T08:51:02.337Z,5.80
2018-03-23T08:55:04.896Z,5.90
2018-03-23T08:59:07.417Z,5.90
2018-03-23T09:03:09.976Z,6.00
2018-03-23T09:07:13.296Z,6.30
2018-03-23T09:11:16.695Z,6.60
2018-03-23T09:15:19.227Z,6.50
2018-03-23T09:19:21.803Z,6.80
2018-03-23T09:23:24.331Z,7.00
2018-03-23T09:27:27.653Z,7.10
2018-03-23T09:31:30.944Z,7.20
2018-03-23T09:35:33.484Z,7.20
2018-03-23T09:39:36.405Z,7.20
2018-03-23T09:43:39.728Z,7.40
2018-03-23T09:47:45.980Z,7.50
2018-03-23T09:51:48.636Z,7.40
2018-03-23T09:55:51.960Z,8.00
2018-03-23T09:59:54.640Z,8.00
2018-03-23T10:03:57.260Z,8.00
2018-03-23T10:07:59.863Z,8.10
2018-03-23T10:12:03.210Z,8.00
2018-03-23T10:16:05.847Z,8.00
2018-03-23T10:20:10.105Z,8.10
2018-03-23T10:24:12.766Z,8.00
2018-03-23T10:28:15.285Z,8.20
2018-03-23T10:32:18.172Z,8.50
2018-03-23T10:36:20.700Z,8.50
2018-03-23T10:40:23.561Z,8.80
2018-03-23T10:44:27.078Z,8.70
2018-03-23T10:48:29.660Z,8.50
2018-03-23T10:52:32.244Z,8.50
2018-03-23T10:56:34.774Z,8.50
2018-03-23T11:00:42.985Z,8.80
2018-03-23T11:04:46.521Z,9.20
2018-03-23T11:08:49.056Z,9.40
2018-03-23T11:12:51.644Z,9.50
2018-03-23T11:16:54.215Z,9.40
2018-03-23T11:20:57.675Z,9.20
2018-03-23T11:25:00.211Z,9.10
2018-03-23T11:29:02.848Z,9.30
2018-03-23T11:33:05.356Z,9.50
2018-03-23T11:37:08.032Z,9.30
2018-03-23T11:41:10.534Z,9.10
2018-03-23T11:45:13.097Z,8.80
2018-03-23T11:49:16.393Z,8.40
2018-03-23T11:53:19.049Z,8.40
2018-03-23T11:57:21.576Z,8.30
2018-03-23T12:01:24.141Z,8.30
2018-03-23T12:05:26.689Z,8.40
2018-03-23T12:09:29.342Z,8.50
2018-03-23T12:13:31.849Z,8.50
2018-03-23T12:17:34.392Z,8.50
2018-03-23T12:21:36.953Z,8.40
2018-03-23T12:25:39.639Z,8.40
2018-03-23T12:29:42.179Z,8.40
2018-03-23T12:33:44.724Z,8.30
2018-03-23T12:37:47.251Z,8.40
2018-03-23T12:41:50.797Z,8.30
2018-03-23T12:45:53.324Z,8.30
2018-03-23T12:49:55.863Z,8.30
2018-03-23T12:53:58.398Z,8.20
2018-03-23T12:58:01.251Z,8.20
2018-03-23T13:02:07.903Z,8.20
2018-03-23T13:06:10.486Z,8.10
2018-03-23T13:10:13.006Z,8.10
2018-03-23T13:14:15.548Z,8.10
2018-03-23T13:18:18.063Z,8.10
2018-03-23T13:22:20.612Z,8.20
2018-03-23T13:26:23.192Z,8.40
2018-03-23T13:30:26.520Z,8.60
2018-03-23T13:34:29.812Z,8.50
2018-03-23T13:38:32.354Z,8.50
2018-03-23T13:42:34.911Z,8.60
2018-03-23T13:46:37.505Z,8.70
2018-03-23T13:50:40.044Z,8.70
2018-03-23T13:54:42.726Z,8.70
2018-03-23T13:58:50.826Z,8.80
2018-03-23T14:02:53.389Z,8.90
2018-03-23T14:06:55.919Z,8.90
2018-03-23T14:10:58.745Z,8.80
2018-03-23T14:15:01.310Z,8.80
2018-03-23T14:19:04.289Z,8.90
2018-03-23T14:23:07.567Z,9.00
2018-03-23T14:27:17.038Z,9.00
2018-03-23T14:31:20.544Z,9.10
2018-03-23T14:35:27.407Z,9.10
2018-03-23T14:39:29.945Z,9.00
2018-03-23T14:43:33.033Z,8.80
2018-03-23T14:47:37.328Z,8.70
2018-03-23T14:51:41.909Z,8.70
2018-03-23T14:55:44.446Z,8.80
2018-03-23T14:59:47.024Z,8.90
2018-03-23T15:03:49.576Z,8.90
2018-03-23T15:07:52.345Z,8.90
2018-03-23T15:11:56.456Z,8.90
2018-03-23T15:16:02.493Z,8.80
2018-03-23T15:20:05.025Z,8.80
2018-03-23T15:24:07.572Z,8.60
2018-03-23T15:28:10.093Z,8.50
2018-03-23T15:32:13.409Z,8.50
2018-03-23T15:36:15.939Z,8.50
2018-03-23T15:40:23.561Z,8.40
2018-03-23T15:44:26.843Z,8.20
2018-03-23T15:48:30.241Z,8.10
2018-03-23T15:52:34.702Z,8.00
2018-03-23T15:56:37.340Z,7.90
2018-03-23T16:00:39.956Z,7.80
2018-03-23T16:04:42.517Z,7.60
2018-03-23T16:08:46.972Z,7.50
2018-03-23T16:12:49.521Z,7.60
2018-03-23T16:16:52.126Z,7.60
2018-03-23T16:20:54.801Z,7.70
2018-03-23T16:24:57.311Z,7.70
2018-03-23T16:28:59.865Z,7.70
2018-03-23T16:33:04.256Z,7.70
2018-03-23T16:37:06.853Z,7.70
2018-03-23T16:41:09.376Z,7.60
2018-03-23T16:45:12.008Z,7.50
2018-03-23T16:49:14.540Z,7.40
2018-03-23T16:53:17.867Z,7.20
2018-03-23T16:57:21.337Z,7.20
2018-03-23T17:01:23.964Z,7.20
2018-03-23T17:05:27.485Z,7.20
2018-03-23T17:09:30.035Z,7.20
2018-03-23T17:13:35.368Z,7.20
2018-03-23T17:17:37.931Z,7.20
2018-03-23T17:21:45.480Z,7.20
2018-03-23T17:25:48.062Z,7.10
2018-03-23T17:29:51.538Z,7.10
2018-03-23T17:33:54.088Z,7.00
2018-03-23T17:37:57.390Z,6.80
2018-03-23T17:42:01.771Z,6.70
2018-03-23T17:46:05.272Z,6.70
2018-03-23T17:50:11.344Z,6.70
2018-03-23T17:54:13.860Z,6.60
2018-03-23T17:58:16.483Z,6.60
2018-03-23T18:02:20.784Z,6.50
2018-03-23T18:06:23.932Z,6.50
2018-03-23T18:10:28.276Z,6.60
2018-03-23T18:14:30.866Z,6.60
2018-03-23T18:18:33.381Z,6.50
2018-03-23T18:22:35.990Z,6.50
2018-03-23T18:26:40.517Z,6.40
2018-03-23T18:30:43.162Z,6.30
2018-03-23T18:34:45.677Z,6.20
2018-03-23T18:38:48.655Z,6.20
2018-03-23T18:42:51.182Z,6.10
2018-03-23T18:46:53.832Z,6.10
2018-03-23T18:50:56.364Z,6.10
2018-03-23T18:55:02.899Z,6.00
2018-03-23T18:59:06.403Z,6.00
2018-03-23T19:03:09.081Z,6.00
2018-03-23T19:07:16.798Z,6.00
2018-03-23T19:11:19.368Z,6.00
2018-03-23T19:15:22.001Z,6.00
2018-03-23T19:19:24.515Z,6.10
2018-03-23T19:23:27.880Z,6.00
2018-03-23T19:27:30.435Z,6.00
2018-03-23T19:31:33.049Z,5.90
2018-03-23T19:35:36.460Z,5.70
2018-03-23T19:39:40.016Z,5.60
2018-03-23T19:43:42.924Z,5.50
2018-03-23T19:47:50.461Z,5.30
2018-03-23T19:51:53.126Z,5.20
2018-03-23T19:55:55.670Z,5.10
2018-03-23T19:59:58.382Z,5.10
2018-03-23T20:04:01.104Z,5.00
2018-03-23T20:08:05.669Z,5.00
2018-03-23T20:12:09.791Z,4.90
2018-03-23T20:16:12.576Z,4.90
2018-03-23T20:20:34.549Z,4.90
2018-03-23T20:24:37.962Z,4.80
2018-03-23T20:28:40.472Z,4.70
2018-03-23T20:32:43.814Z,4.50
2018-03-23T20:36:48.325Z,4.50
2018-03-23T20:40:50.987Z,4.40
2018-03-23T20:44:53.514Z,4.50
2018-03-23T20:48:57.123Z,4.40
2018-03-23T20:53:05.881Z,4.40
2018-03-23T20:57:16.020Z,4.10
2018-03-23T21:01:19.305Z,3.90
2018-03-23T21:05:21.988Z,3.90
2018-03-23T21:09:26.472Z,3.80
2018-03-23T21:13:30.055Z,3.80
2018-03-23T21:17:32.575Z,3.60
2018-03-23T21:21:35.132Z,3.70
2018-03-23T21:25:37.661Z,3.60
2018-03-23T21:29:46.712Z,3.40
2018-03-23T21:33:49.282Z,3.30
2018-03-23T21:37:52.953Z,3.30
2018-03-23T21:41:58.203Z,3.20
2018-03-23T21:46:04.652Z,3.10
2018-03-23T21:50:10.469Z,3.00
2018-03-23T21:54:13.032Z,3.00
2018-03-23T21:58:18.125Z,2.90
2018-03-23T22:02:20.825Z,2.90
2018-03-23T22:06:24.124Z,2.80
2018-03-23T22:10:27.753Z,2.70
2018-03-23T22:14:32.260Z,2.60
2018-03-23T22:18:34.872Z,2.50
2018-03-23T22:22:41.344Z,2.40
2018-03-23T22:26:44.884Z,2.40
2018-03-23T22:30:48.098Z,2.40
2018-03-23T22:34:51.664Z,2.40
2018-03-23T22:38:54.193Z,2.30
2018-03-23T22:42:57.540Z,2.20
2018-03-23T22:47:00.101Z,2.10
2018-03-23T22:51:02.648Z,2.20
2018-03-23T22:55:16.720Z,2.20
2018-03-23T22:59:19.282Z,2.00
2018-03-23T23:03:21.812Z,2.10
2018-03-23T23:07:25.141Z,2.20
2018-03-23T23:11:28.429Z,2.10
2018-03-23T23:15:30.972Z,2.00
2018-03-23T23:19:35.706Z,2.00
2018-03-23T23:23:39.029Z,1.70
2018-03-23T23:27:41.705Z,1.60
2018-03-23T23:31:44.270Z,1.70
2018-03-23T23:35:46.942Z,1.70
2018-03-23T23:39:49.630Z,1.60
2018-03-23T23:43:52.189Z,1.60
2018-03-23T23:47:55.032Z,1.70
2018-03-23T23:51:57.600Z,1.70
2018-03-23T23:56:00.244Z,1.60
